Mugan — 9HA2962 — position and weather

sailwx.info

Track history (hours):
 
Tides and Currents Weather Stations Pressure Air Temp Water Temp Dewpoint Dewpoint Depression Visibility Wind Speed Wind Dir Waves Ship Positions

Mugan

Last reported at 2015-Aug-26 00:33 UTC. Time now 2015-Aug-31 02:36 UTC.
Position N 36°45' E 016°01'.

Length 140 m; draft 4 m.

Type: Tanker. MMSI: 256914000.

Date/timePositionNaut miles runAvg speedWind from/ knotsBaromVisibWave heightAir tempDewpointWater temp
2015-Aug-26 00:33N 36°45' E 016°01'29 9.6
2015-Aug-25 21:33N 36°33' E 015°29'10 9.8
2015-Aug-25 20:32N 36°29' E 015°17'1010.2
2015-Aug-25 19:32N 36°27' E 015°05'1110.2
2015-Aug-25 18:25N 36°26' E 014°51'910.4
2015-Aug-25 17:33N 36°27' E 014°40'1010.4
2015-Aug-25 16:33N 36°29' E 014°27'1010.2
2015-Aug-25 15:32N 36°33' E 014°15'1010.2
2015-Aug-25 14:33N 36°39' E 014°05'1110.2
2015-Aug-25 13:27N 36°45' E 013°53'910.4
2015-Aug-25 12:32N 36°49' E 013°43'1310.5
2015-Aug-25 11:18N 36°54' E 013°28'2910.4
2015-Aug-25 08:31N 37°04' E 012°54'1010.3
2015-Aug-25 07:32N 37°07' E 012°42'4010.1
2015-Aug-25 03:33N 37°25' E 011°56'10 9.7
2015-Aug-25 02:33N 37°30' E 011°46'6110.2
2015-Aug-24 20:32N 37°43' E 010°30'2110.6
2015-Aug-24 18:33N 37°46' E 010°04'1010.2
2015-Aug-24 17:33N 37°47' E 009°51'10 9.9
2015-Aug-24 16:32N 37°48' E 009°38'1010.3
2015-Aug-24 15:32N 37°48' E 009°25'3310.4
2015-Aug-24 12:21N 37°46' E 008°43'276 9.9
2015-Aug-23 08:31N 37°04' E 002°60'9 9.7
2015-Aug-23 07:33N 37°03' E 002°48'1010.1
2015-Aug-23 06:33N 37°02' E 002°36'1010.4
2015-Aug-23 05:33N 36°60' E 002°23'10 9.9
2015-Aug-23 04:34N 36°58' E 002°11'10 9.9
2015-Aug-23 03:33N 36°56' E 001°59'13 9.6
2015-Aug-23 02:10N 36°54' E 001°42'  
Track history (hours):
 
Tides and Currents Weather Stations Pressure Air Temp Water Temp Dewpoint Dewpoint Depression Visibility Wind Speed Wind Dir Waves Ship Positions

Mugan

Last reported at 2015-Aug-26 00:33 UTC. Time now 2015-Aug-31 02:36 UTC.
Position N 36°45' E 016°01'.

Length 140 m; draft 4 m.

Type: Tanker. MMSI: 256914000.

Date/timePositionNaut miles runAvg speedWind from/ knotsBaromVisibWave heightAir tempDewpointWater temp
2015-Aug-26 00:33N 36°45' E 016°01'29 9.6
2015-Aug-25 21:33N 36°33' E 015°29'10 9.8
2015-Aug-25 20:32N 36°29' E 015°17'1010.2
2015-Aug-25 19:32N 36°27' E 015°05'1110.2
2015-Aug-25 18:25N 36°26' E 014°51'910.4
2015-Aug-25 17:33N 36°27' E 014°40'1010.4
2015-Aug-25 16:33N 36°29' E 014°27'1010.2
2015-Aug-25 15:32N 36°33' E 014°15'1010.2
2015-Aug-25 14:33N 36°39' E 014°05'1110.2
2015-Aug-25 13:27N 36°45' E 013°53'910.4
2015-Aug-25 12:32N 36°49' E 013°43'1310.5
2015-Aug-25 11:18N 36°54' E 013°28'2910.4
2015-Aug-25 08:31N 37°04' E 012°54'1010.3
2015-Aug-25 07:32N 37°07' E 012°42'4010.1
2015-Aug-25 03:33N 37°25' E 011°56'10 9.7
2015-Aug-25 02:33N 37°30' E 011°46'6110.2
2015-Aug-24 20:32N 37°43' E 010°30'2110.6
2015-Aug-24 18:33N 37°46' E 010°04'1010.2
2015-Aug-24 17:33N 37°47' E 009°51'10 9.9
2015-Aug-24 16:32N 37°48' E 009°38'1010.3
2015-Aug-24 15:32N 37°48' E 009°25'3310.4
2015-Aug-24 12:21N 37°46' E 008°43'276 9.9
2015-Aug-23 08:31N 37°04' E 002°60'9 9.7
2015-Aug-23 07:33N 37°03' E 002°48'1010.1
2015-Aug-23 06:33N 37°02' E 002°36'1010.4
2015-Aug-23 05:33N 36°60' E 002°23'10 9.9
2015-Aug-23 04:34N 36°58' E 002°11'10 9.9
2015-Aug-23 03:33N 36°56' E 001°59'13 9.6
2015-Aug-23 02:10N 36°54' E 001°42'  

Dump ship's entire track history